sensor_id;sensor_type;location;lat;lon;timestamp;temperature;humidity
1936;DHT22;969;49.892;10.896;2023-07-29T00:00:49;25.00;56.40
1936;DHT22;969;49.892;10.896;2023-07-29T00:03:14;25.00;55.90
1936;DHT22;969;49.892;10.896;2023-07-29T00:05:40;24.90;55.70
1936;DHT22;969;49.892;10.896;2023-07-29T00:08:06;25.00;55.90
1936;DHT22;969;49.892;10.896;2023-07-29T00:10:34;25.00;55.80
1936;DHT22;969;49.892;10.896;2023-07-29T00:13:02;25.00;55.80
1936;DHT22;969;49.892;10.896;2023-07-29T00:15:28;24.90;55.70
1936;DHT22;969;49.892;10.896;2023-07-29T00:17:53;24.90;55.80
1936;DHT22;969;49.892;10.896;2023-07-29T00:20:19;24.90;55.80
1936;DHT22;969;49.892;10.896;2023-07-29T00:22:44;24.90;55.80
1936;DHT22;969;49.892;10.896;2023-07-29T00:25:10;24.90;55.70
1936;DHT22;969;49.892;10.896;2023-07-29T00:27:35;24.90;55.70
1936;DHT22;969;49.892;10.896;2023-07-29T00:30:01;24.90;55.70
1936;DHT22;969;49.892;10.896;2023-07-29T00:32:29;24.90;55.70
1936;DHT22;969;49.892;10.896;2023-07-29T00:34:56;24.90;55.70
1936;DHT22;969;49.892;10.896;2023-07-29T00:37:22;24.90;55.90
1936;DHT22;969;49.892;10.896;2023-07-29T00:39:47;24.90;55.70
1936;DHT22;969;49.892;10.896;2023-07-29T00:42:13;24.90;55.70
1936;DHT22;969;49.892;10.896;2023-07-29T00:44:38;24.90;55.70
1936;DHT22;969;49.892;10.896;2023-07-29T00:47:05;24.90;55.70
1936;DHT22;969;49.892;10.896;2023-07-29T00:49:32;24.90;55.70
1936;DHT22;969;49.892;10.896;2023-07-29T00:51:58;24.90;55.70
1936;DHT22;969;49.892;10.896;2023-07-29T00:54:24;24.90;55.60
1936;DHT22;969;49.892;10.896;2023-07-29T00:56:49;24.90;55.70
1936;DHT22;969;49.892;10.896;2023-07-29T00:59:15;24.90;55.70
1936;DHT22;969;49.892;10.896;2023-07-29T01:01:41;24.90;55.70
1936;DHT22;969;49.892;10.896;2023-07-29T01:04:07;24.90;55.70
1936;DHT22;969;49.892;10.896;2023-07-29T01:12:22;24.90;55.70
1936;DHT22;969;49.892;10.896;2023-07-29T01:15:25;24.90;55.70
1936;DHT22;969;49.892;10.896;2023-07-29T01:18:05;24.90;55.70
1936;DHT22;969;49.892;10.896;2023-07-29T01:20:34;24.90;55.60
1936;DHT22;969;49.892;10.896;2023-07-29T01:23:01;24.90;55.70
1936;DHT22;969;49.892;10.896;2023-07-29T01:25:27;24.90;55.60
1936;DHT22;969;49.892;10.896;2023-07-29T01:27:52;24.90;55.70
1936;DHT22;969;49.892;10.896;2023-07-29T01:30:19;24.90;55.60
1936;DHT22;969;49.892;10.896;2023-07-29T01:33:02;24.90;55.70
1936;DHT22;969;49.892;10.896;2023-07-29T01:35:50;24.90;55.60
1936;DHT22;969;49.892;10.896;2023-07-29T01:38:23;24.90;55.70
1936;DHT22;969;49.892;10.896;2023-07-29T01:40:50;24.90;55.60
1936;DHT22;969;49.892;10.896;2023-07-29T01:43:18;24.90;55.50
1936;DHT22;969;49.892;10.896;2023-07-29T01:45:48;24.90;55.50
1936;DHT22;969;49.892;10.896;2023-07-29T01:48:14;24.90;55.50
1936;DHT22;969;49.892;10.896;2023-07-29T01:50:40;24.90;55.50
1936;DHT22;969;49.892;10.896;2023-07-29T01:53:05;24.90;55.40
1936;DHT22;969;49.892;10.896;2023-07-29T01:55:31;24.90;55.40
1936;DHT22;969;49.892;10.896;2023-07-29T01:57:56;25.00;55.50
1936;DHT22;969;49.892;10.896;2023-07-29T02:00:23;24.90;55.40
1936;DHT22;969;49.892;10.896;2023-07-29T02:02:49;24.90;55.40
1936;DHT22;969;49.892;10.896;2023-07-29T02:05:14;24.90;55.40
1936;DHT22;969;49.892;10.896;2023-07-29T02:07:40;24.90;55.40
1936;DHT22;969;49.892;10.896;2023-07-29T02:10:06;24.90;55.40
1936;DHT22;969;49.892;10.896;2023-07-29T02:12:33;24.90;55.30
1936;DHT22;969;49.892;10.896;2023-07-29T02:14:58;25.00;55.30
1936;DHT22;969;49.892;10.896;2023-07-29T02:17:24;25.00;55.30
1936;DHT22;969;49.892;10.896;2023-07-29T02:19:49;25.00;55.30
1936;DHT22;969;49.892;10.896;2023-07-29T02:22:17;24.90;55.30
1936;DHT22;969;49.892;10.896;2023-07-29T02:24:44;24.90;55.20
1936;DHT22;969;49.892;10.896;2023-07-29T02:27:09;24.90;55.20
1936;DHT22;969;49.892;10.896;2023-07-29T02:29:35;24.90;55.20
1936;DHT22;969;49.892;10.896;2023-07-29T02:32:00;25.00;55.20
1936;DHT22;969;49.892;10.896;2023-07-29T02:34:26;25.00;55.20
1936;DHT22;969;49.892;10.896;2023-07-29T02:36:52;24.90;55.10
1936;DHT22;969;49.892;10.896;2023-07-29T02:39:17;25.00;55.20
1936;DHT22;969;49.892;10.896;2023-07-29T02:41:43;25.00;55.20
1936;DHT22;969;49.892;10.896;2023-07-29T02:44:08;25.00;55.20
1936;DHT22;969;49.892;10.896;2023-07-29T02:46:34;25.00;55.10
1936;DHT22;969;49.892;10.896;2023-07-29T02:49:01;24.90;55.00
1936;DHT22;969;49.892;10.896;2023-07-29T02:51:27;25.00;55.10
1936;DHT22;969;49.892;10.896;2023-07-29T02:53:52;25.00;55.10
1936;DHT22;969;49.892;10.896;2023-07-29T02:56:18;25.00;55.20
1936;DHT22;969;49.892;10.896;2023-07-29T02:58:44;24.90;55.20
1936;DHT22;969;49.892;10.896;2023-07-29T03:01:10;25.00;55.20
1936;DHT22;969;49.892;10.896;2023-07-29T03:03:35;25.00;55.20
1936;DHT22;969;49.892;10.896;2023-07-29T03:06:09;25.00;55.20
1936;DHT22;969;49.892;10.896;2023-07-29T03:08:35;25.00;55.30
1936;DHT22;969;49.892;10.896;2023-07-29T03:11:10;25.00;55.30
1936;DHT22;969;49.892;10.896;2023-07-29T03:13:36;25.00;55.30
1936;DHT22;969;49.892;10.896;2023-07-29T03:16:06;25.00;55.50
1936;DHT22;969;49.892;10.896;2023-07-29T03:18:31;25.00;55.60
1936;DHT22;969;49.892;10.896;2023-07-29T03:20:57;24.90;55.50
1936;DHT22;969;49.892;10.896;2023-07-29T03:23:22;24.90;55.50
1936;DHT22;969;49.892;10.896;2023-07-29T03:25:49;24.90;55.50
1936;DHT22;969;49.892;10.896;2023-07-29T03:28:16;24.90;55.50
1936;DHT22;969;49.892;10.896;2023-07-29T03:30:43;24.90;55.60
1936;DHT22;969;49.892;10.896;2023-07-29T03:33:09;24.90;55.50
1936;DHT22;969;49.892;10.896;2023-07-29T03:35:34;24.90;55.60
1936;DHT22;969;49.892;10.896;2023-07-29T03:38:00;24.90;55.60
1936;DHT22;969;49.892;10.896;2023-07-29T03:40:25;24.90;55.50
1936;DHT22;969;49.892;10.896;2023-07-29T03:42:51;24.90;55.60
1936;DHT22;969;49.892;10.896;2023-07-29T03:45:16;24.90;55.60
1936;DHT22;969;49.892;10.896;2023-07-29T03:47:42;24.90;55.60
1936;DHT22;969;49.892;10.896;2023-07-29T03:50:08;24.90;55.70
1936;DHT22;969;49.892;10.896;2023-07-29T03:52:34;24.90;55.50
1936;DHT22;969;49.892;10.896;2023-07-29T03:54:59;24.90;55.50
1936;DHT22;969;49.892;10.896;2023-07-29T03:57:25;24.90;55.50
1936;DHT22;969;49.892;10.896;2023-07-29T03:59:50;24.90;55.60
1936;DHT22;969;49.892;10.896;2023-07-29T04:02:16;24.90;55.60
1936;DHT22;969;49.892;10.896;2023-07-29T04:04:41;24.90;55.60
1936;DHT22;969;49.892;10.896;2023-07-29T04:07:09;24.90;55.70
1936;DHT22;969;49.892;10.896;2023-07-29T04:09:35;24.90;55.70
1936;DHT22;969;49.892;10.896;2023-07-29T04:12:00;24.90;55.70
1936;DHT22;969;49.892;10.896;2023-07-29T04:14:26;24.90;55.70
1936;DHT22;969;49.892;10.896;2023-07-29T04:16:51;24.90;55.70
1936;DHT22;969;49.892;10.896;2023-07-29T04:19:17;24.90;55.70
1936;DHT22;969;49.892;10.896;2023-07-29T04:21:43;24.90;55.70
1936;DHT22;969;49.892;10.896;2023-07-29T04:24:08;24.90;55.70
1936;DHT22;969;49.892;10.896;2023-07-29T04:26:34;24.90;55.70
1936;DHT22;969;49.892;10.896;2023-07-29T04:28:59;24.90;55.70
1936;DHT22;969;49.892;10.896;2023-07-29T04:31:25;24.90;55.60
1936;DHT22;969;49.892;10.896;2023-07-29T04:33:50;24.90;55.60
1936;DHT22;969;49.892;10.896;2023-07-29T04:36:17;24.90;55.60
1936;DHT22;969;49.892;10.896;2023-07-29T04:38:42;24.90;55.60
1936;DHT22;969;49.892;10.896;2023-07-29T04:41:08;24.90;55.60
1936;DHT22;969;49.892;10.896;2023-07-29T04:43:34;24.90;56.20
1936;DHT22;969;49.892;10.896;2023-07-29T04:46:00;24.90;55.70
1936;DHT22;969;49.892;10.896;2023-07-29T04:48:26;24.90;55.70
1936;DHT22;969;49.892;10.896;2023-07-29T04:50:51;24.90;55.70
1936;DHT22;969;49.892;10.896;2023-07-29T04:53:17;24.90;55.60
1936;DHT22;969;49.892;10.896;2023-07-29T04:55:43;24.90;55.70
1936;DHT22;969;49.892;10.896;2023-07-29T04:58:09;24.90;55.70
1936;DHT22;969;49.892;10.896;2023-07-29T05:00:34;24.90;55.70
1936;DHT22;969;49.892;10.896;2023-07-29T05:03:00;24.90;55.70
1936;DHT22;969;49.892;10.896;2023-07-29T05:05:26;24.90;55.60
1936;DHT22;969;49.892;10.896;2023-07-29T05:07:52;24.90;55.70
1936;DHT22;969;49.892;10.896;2023-07-29T05:10:18;24.90;55.60
1936;DHT22;969;49.892;10.896;2023-07-29T05:12:44;24.90;55.70
1936;DHT22;969;49.892;10.896;2023-07-29T05:15:09;24.90;55.70
1936;DHT22;969;49.892;10.896;2023-07-29T05:17:35;24.90;55.70
1936;DHT22;969;49.892;10.896;2023-07-29T05:20:01;24.90;55.70
1936;DHT22;969;49.892;10.896;2023-07-29T05:22:26;24.90;55.70
1936;DHT22;969;49.892;10.896;2023-07-29T05:24:52;24.90;55.70
1936;DHT22;969;49.892;10.896;2023-07-29T05:27:17;24.90;55.70
1936;DHT22;969;49.892;10.896;2023-07-29T05:29:43;24.90;55.70
1936;DHT22;969;49.892;10.896;2023-07-29T05:32:09;24.90;55.70
1936;DHT22;969;49.892;10.896;2023-07-29T05:34:35;24.90;55.80
1936;DHT22;969;49.892;10.896;2023-07-29T05:37:01;24.90;55.80
1936;DHT22;969;49.892;10.896;2023-07-29T05:39:26;24.90;55.80
1936;DHT22;969;49.892;10.896;2023-07-29T05:41:52;24.90;55.80
1936;DHT22;969;49.892;10.896;2023-07-29T05:44:17;24.90;55.80
1936;DHT22;969;49.892;10.896;2023-07-29T05:46:43;24.90;55.80
1936;DHT22;969;49.892;10.896;2023-07-29T05:49:08;24.90;55.90
1936;DHT22;969;49.892;10.896;2023-07-29T05:51:34;24.90;55.90
1936;DHT22;969;49.892;10.896;2023-07-29T05:54:00;24.90;55.90
1936;DHT22;969;49.892;10.896;2023-07-29T05:56:25;24.90;55.90
1936;DHT22;969;49.892;10.896;2023-07-29T05:58:51;24.90;55.90
1936;DHT22;969;49.892;10.896;2023-07-29T06:01:17;24.90;55.90
1936;DHT22;969;49.892;10.896;2023-07-29T06:03:46;24.90;55.80
1936;DHT22;969;49.892;10.896;2023-07-29T06:06:13;24.90;55.80
1936;DHT22;969;49.892;10.896;2023-07-29T06:08:39;24.90;55.90
1936;DHT22;969;49.892;10.896;2023-07-29T06:11:04;24.90;55.80
1936;DHT22;969;49.892;10.896;2023-07-29T06:13:32;24.90;55.90
1936;DHT22;969;49.892;10.896;2023-07-29T06:15:57;24.90;56.00
1936;DHT22;969;49.892;10.896;2023-07-29T06:18:24;24.90;56.00
1936;DHT22;969;49.892;10.896;2023-07-29T06:20:49;24.90;55.90
1936;DHT22;969;49.892;10.896;2023-07-29T06:23:17;24.90;56.00
1936;DHT22;969;49.892;10.896;2023-07-29T06:25:42;24.90;56.00
1936;DHT22;969;49.892;10.896;2023-07-29T06:28:09;24.90;56.10
1936;DHT22;969;49.892;10.896;2023-07-29T06:30:35;24.90;56.00
1936;DHT22;969;49.892;10.896;2023-07-29T06:33:01;24.90;56.00
1936;DHT22;969;49.892;10.896;2023-07-29T06:35:28;24.90;56.10
1936;DHT22;969;49.892;10.896;2023-07-29T06:37:55;24.90;56.00
1936;DHT22;969;49.892;10.896;2023-07-29T06:40:21;24.90;56.20
1936;DHT22;969;49.892;10.896;2023-07-29T06:42:48;24.90;56.20
1936;DHT22;969;49.892;10.896;2023-07-29T06:45:13;24.90;56.10
1936;DHT22;969;49.892;10.896;2023-07-29T06:47:41;24.90;56.20
1936;DHT22;969;49.892;10.896;2023-07-29T06:50:06;24.90;56.20
1936;DHT22;969;49.892;10.896;2023-07-29T06:52:32;24.90;56.30
1936;DHT22;969;49.892;10.896;2023-07-29T06:55:00;24.90;56.40
1936;DHT22;969;49.892;10.896;2023-07-29T06:57:25;24.90;56.40
1936;DHT22;969;49.892;10.896;2023-07-29T06:59:51;24.90;56.40
1936;DHT22;969;49.892;10.896;2023-07-29T07:02:17;24.90;56.40
1936;DHT22;969;49.892;10.896;2023-07-29T07:04:42;24.90;56.40
1936;DHT22;969;49.892;10.896;2023-07-29T07:07:09;24.90;56.40
1936;DHT22;969;49.892;10.896;2023-07-29T07:09:35;24.90;56.40
1936;DHT22;969;49.892;10.896;2023-07-29T07:12:00;24.90;56.40
1936;DHT22;969;49.892;10.896;2023-07-29T07:14:26;24.90;56.50
1936;DHT22;969;49.892;10.896;2023-07-29T07:16:51;24.90;56.50
1936;DHT22;969;49.892;10.896;2023-07-29T07:19:17;24.90;56.50
1936;DHT22;969;49.892;10.896;2023-07-29T07:21:43;24.90;56.70
1936;DHT22;969;49.892;10.896;2023-07-29T07:24:09;24.90;56.70
1936;DHT22;969;49.892;10.896;2023-07-29T07:26:34;24.90;56.80
1936;DHT22;969;49.892;10.896;2023-07-29T07:29:00;24.90;56.80
1936;DHT22;969;49.892;10.896;2023-07-29T07:31:25;24.90;56.70
1936;DHT22;969;49.892;10.896;2023-07-29T07:33:51;24.90;56.80
1936;DHT22;969;49.892;10.896;2023-07-29T07:36:17;24.90;56.80
1936;DHT22;969;49.892;10.896;2023-07-29T07:38:42;24.90;57.40
1936;DHT22;969;49.892;10.896;2023-07-29T07:41:09;24.90;56.80
1936;DHT22;969;49.892;10.896;2023-07-29T07:43:35;24.90;56.80
1936;DHT22;969;49.892;10.896;2023-07-29T07:46:01;24.90;56.80
1936;DHT22;969;49.892;10.896;2023-07-29T07:48:27;24.90;56.80
1936;DHT22;969;49.892;10.896;2023-07-29T07:50:53;24.90;56.80
1936;DHT22;969;49.892;10.896;2023-07-29T07:53:19;24.90;56.80
1936;DHT22;969;49.892;10.896;2023-07-29T07:55:45;24.90;56.80
1936;DHT22;969;49.892;10.896;2023-07-29T07:58:11;24.90;56.80
1936;DHT22;969;49.892;10.896;2023-07-29T08:00:36;24.90;56.90
1936;DHT22;969;49.892;10.896;2023-07-29T08:03:02;24.90;56.80
1936;DHT22;969;49.892;10.896;2023-07-29T08:05:28;24.90;56.90
1936;DHT22;969;49.892;10.896;2023-07-29T08:07:53;24.90;56.90
1936;DHT22;969;49.892;10.896;2023-07-29T08:10:19;24.90;57.00
1936;DHT22;969;49.892;10.896;2023-07-29T08:12:44;24.90;57.00
1936;DHT22;969;49.892;10.896;2023-07-29T08:15:10;24.90;57.50
1936;DHT22;969;49.892;10.896;2023-07-29T08:17:36;24.90;56.90
1936;DHT22;969;49.892;10.896;2023-07-29T08:20:01;24.90;57.00
1936;DHT22;969;49.892;10.896;2023-07-29T08:22:27;24.90;57.00
1936;DHT22;969;49.892;10.896;2023-07-29T08:24:52;24.90;57.00
1936;DHT22;969;49.892;10.896;2023-07-29T08:27:18;24.90;57.00
1936;DHT22;969;49.892;10.896;2023-07-29T08:29:43;24.90;57.00
1936;DHT22;969;49.892;10.896;2023-07-29T08:32:09;24.90;57.10
1936;DHT22;969;49.892;10.896;2023-07-29T08:34:34;24.90;57.00
1936;DHT22;969;49.892;10.896;2023-07-29T08:37:01;24.90;57.50
1936;DHT22;969;49.892;10.896;2023-07-29T08:39:27;24.90;57.00
1936;DHT22;969;49.892;10.896;2023-07-29T08:42:08;24.90;57.00
1936;DHT22;969;49.892;10.896;2023-07-29T08:44:40;24.90;57.10
1936;DHT22;969;49.892;10.896;2023-07-29T08:47:07;24.90;57.00
1936;DHT22;969;49.892;10.896;2023-07-29T08:49:33;24.90;57.10
1936;DHT22;969;49.892;10.896;2023-07-29T08:51:59;24.90;57.20
1936;DHT22;969;49.892;10.896;2023-07-29T08:54:26;24.90;57.40
1936;DHT22;969;49.892;10.896;2023-07-29T08:56:52;24.90;57.40
1936;DHT22;969;49.892;10.896;2023-07-29T08:59:18;24.90;57.40
1936;DHT22;969;49.892;10.896;2023-07-29T09:01:44;24.90;57.30
1936;DHT22;969;49.892;10.896;2023-07-29T09:04:10;24.90;57.30
1936;DHT22;969;49.892;10.896;2023-07-29T09:06:38;24.90;57.20
1936;DHT22;969;49.892;10.896;2023-07-29T09:09:04;24.90;57.20
1936;DHT22;969;49.892;10.896;2023-07-29T09:11:31;24.90;57.20
1936;DHT22;969;49.892;10.896;2023-07-29T09:13:58;24.90;57.10
1936;DHT22;969;49.892;10.896;2023-07-29T09:16:24;24.90;57.20
1936;DHT22;969;49.892;10.896;2023-07-29T09:18:51;24.90;57.20
1936;DHT22;969;49.892;10.896;2023-07-29T09:21:27;24.90;57.20
1936;DHT22;969;49.892;10.896;2023-07-29T09:23:54;24.90;57.80
1936;DHT22;969;49.892;10.896;2023-07-29T09:26:27;24.90;57.30
1936;DHT22;969;49.892;10.896;2023-07-29T09:28:55;25.00;57.40
1936;DHT22;969;49.892;10.896;2023-07-29T09:31:22;25.00;57.30
1936;DHT22;969;49.892;10.896;2023-07-29T09:33:49;25.00;57.20
1936;DHT22;969;49.892;10.896;2023-07-29T09:36:15;25.00;57.10
1936;DHT22;969;49.892;10.896;2023-07-29T09:38:41;24.90;57.60
1936;DHT22;969;49.892;10.896;2023-07-29T09:41:06;24.90;57.00
1936;DHT22;969;49.892;10.896;2023-07-29T09:43:35;25.00;57.00
1936;DHT22;969;49.892;10.896;2023-07-29T09:46:04;25.00;57.70
1936;DHT22;969;49.892;10.896;2023-07-29T09:48:37;25.00;57.10
1936;DHT22;969;49.892;10.896;2023-07-29T09:51:13;25.00;57.10
1936;DHT22;969;49.892;10.896;2023-07-29T09:53:43;25.00;57.10
1936;DHT22;969;49.892;10.896;2023-07-29T09:56:09;24.90;56.90
1936;DHT22;969;49.892;10.896;2023-07-29T09:58:35;25.00;57.00
1936;DHT22;969;49.892;10.896;2023-07-29T10:01:05;25.00;57.00
1936;DHT22;969;49.892;10.896;2023-07-29T10:03:31;25.00;56.90
1936;DHT22;969;49.892;10.896;2023-07-29T10:06:02;25.00;56.80
1936;DHT22;969;49.892;10.896;2023-07-29T10:08:30;25.00;56.80
1936;DHT22;969;49.892;10.896;2023-07-29T10:10:59;25.00;56.70
1936;DHT22;969;49.892;10.896;2023-07-29T10:13:26;25.00;56.70
1936;DHT22;969;49.892;10.896;2023-07-29T10:15:54;25.00;56.70
1936;DHT22;969;49.892;10.896;2023-07-29T10:18:22;25.00;56.60
1936;DHT22;969;49.892;10.896;2023-07-29T10:20:50;25.00;56.50
1936;DHT22;969;49.892;10.896;2023-07-29T10:23:17;25.00;56.50
1936;DHT22;969;49.892;10.896;2023-07-29T10:25:50;25.00;56.40
1936;DHT22;969;49.892;10.896;2023-07-29T10:28:16;25.00;56.40
1936;DHT22;969;49.892;10.896;2023-07-29T10:30:44;25.00;56.30
1936;DHT22;969;49.892;10.896;2023-07-29T10:33:14;25.00;56.40
1936;DHT22;969;49.892;10.896;2023-07-29T10:35:40;25.00;56.40
1936;DHT22;969;49.892;10.896;2023-07-29T10:38:07;25.00;56.30
1936;DHT22;969;49.892;10.896;2023-07-29T10:40:55;25.00;56.40
1936;DHT22;969;49.892;10.896;2023-07-29T10:43:32;25.00;56.40
1936;DHT22;969;49.892;10.896;2023-07-29T10:46:21;25.00;56.40
1936;DHT22;969;49.892;10.896;2023-07-29T10:51:35;25.00;56.50
1936;DHT22;969;49.892;10.896;2023-07-29T10:54:10;25.00;56.40
1936;DHT22;969;49.892;10.896;2023-07-29T10:56:40;25.00;56.50
1936;DHT22;969;49.892;10.896;2023-07-29T11:01:43;25.00;56.50
1936;DHT22;969;49.892;10.896;2023-07-29T11:20:20;25.00;56.60
1936;DHT22;969;49.892;10.896;2023-07-29T11:22:46;25.00;56.50
1936;DHT22;969;49.892;10.896;2023-07-29T11:25:14;25.00;56.40
1936;DHT22;969;49.892;10.896;2023-07-29T11:27:42;25.00;56.40
1936;DHT22;969;49.892;10.896;2023-07-29T11:30:10;25.00;56.40
1936;DHT22;969;49.892;10.896;2023-07-29T11:32:37;25.00;56.30
1936;DHT22;969;49.892;10.896;2023-07-29T11:35:10;25.00;56.20
1936;DHT22;969;49.892;10.896;2023-07-29T11:37:37;25.10;56.10
1936;DHT22;969;49.892;10.896;2023-07-29T11:40:04;25.00;56.10
1936;DHT22;969;49.892;10.896;2023-07-29T11:42:34;25.10;56.10
1936;DHT22;969;49.892;10.896;2023-07-29T11:45:03;25.10;56.00
1936;DHT22;969;49.892;10.896;2023-07-29T11:47:34;25.10;56.00
1936;DHT22;969;49.892;10.896;2023-07-29T11:50:04;25.10;56.10
1936;DHT22;969;49.892;10.896;2023-07-29T11:52:34;25.10;56.00
1936;DHT22;969;49.892;10.896;2023-07-29T11:55:02;25.10;55.90
1936;DHT22;969;49.892;10.896;2023-07-29T11:57:33;25.10;55.90
1936;DHT22;969;49.892;10.896;2023-07-29T12:00:02;25.10;55.90
1936;DHT22;969;49.892;10.896;2023-07-29T12:02:29;25.10;56.00
1936;DHT22;969;49.892;10.896;2023-07-29T12:04:56;25.10;56.10
1936;DHT22;969;49.892;10.896;2023-07-29T12:07:22;25.10;56.10
1936;DHT22;969;49.892;10.896;2023-07-29T12:09:49;25.10;56.10
1936;DHT22;969;49.892;10.896;2023-07-29T12:12:16;25.10;56.10
1936;DHT22;969;49.892;10.896;2023-07-29T12:14:47;25.10;56.00
1936;DHT22;969;49.892;10.896;2023-07-29T12:17:13;25.10;56.10
1936;DHT22;969;49.892;10.896;2023-07-29T12:19:39;25.10;56.00
1936;DHT22;969;49.892;10.896;2023-07-29T12:22:07;25.10;56.00
1936;DHT22;969;49.892;10.896;2023-07-29T12:24:35;25.10;56.00
1936;DHT22;969;49.892;10.896;2023-07-29T12:27:01;25.10;56.10
1936;DHT22;969;49.892;10.896;2023-07-29T12:29:27;25.10;56.10
1936;DHT22;969;49.892;10.896;2023-07-29T12:32:03;25.10;56.10
1936;DHT22;969;49.892;10.896;2023-07-29T12:34:30;25.10;56.10
1936;DHT22;969;49.892;10.896;2023-07-29T12:36:58;25.10;56.00
1936;DHT22;969;49.892;10.896;2023-07-29T12:39:43;25.10;56.00
1936;DHT22;969;49.892;10.896;2023-07-29T12:42:09;25.10;56.10
1936;DHT22;969;49.892;10.896;2023-07-29T12:44:37;25.10;56.00
1936;DHT22;969;49.892;10.896;2023-07-29T12:47:05;25.10;55.90
1936;DHT22;969;49.892;10.896;2023-07-29T12:49:32;25.10;55.80
1936;DHT22;969;49.892;10.896;2023-07-29T12:52:01;25.10;55.70
1936;DHT22;969;49.892;10.896;2023-07-29T12:54:27;25.10;56.30
1936;DHT22;969;49.892;10.896;2023-07-29T12:56:53;25.10;55.70
1936;DHT22;969;49.892;10.896;2023-07-29T12:59:18;25.10;55.60
1936;DHT22;969;49.892;10.896;2023-07-29T13:01:44;25.10;55.60
1936;DHT22;969;49.892;10.896;2023-07-29T13:04:13;25.10;55.60
1936;DHT22;969;49.892;10.896;2023-07-29T13:06:38;25.10;55.60
1936;DHT22;969;49.892;10.896;2023-07-29T13:09:04;25.10;55.50
1936;DHT22;969;49.892;10.896;2023-07-29T13:11:31;25.10;55.50
1936;DHT22;969;49.892;10.896;2023-07-29T13:13:58;25.10;55.50
1936;DHT22;969;49.892;10.896;2023-07-29T13:16:24;25.10;55.50
1936;DHT22;969;49.892;10.896;2023-07-29T13:18:49;25.10;55.50
1936;DHT22;969;49.892;10.896;2023-07-29T13:21:15;25.20;55.70
1936;DHT22;969;49.892;10.896;2023-07-29T13:23:41;25.20;55.90
1936;DHT22;969;49.892;10.896;2023-07-29T13:26:07;25.20;55.80
1936;DHT22;969;49.892;10.896;2023-07-29T13:28:32;25.20;55.70
1936;DHT22;969;49.892;10.896;2023-07-29T13:30:58;25.10;55.70
1936;DHT22;969;49.892;10.896;2023-07-29T13:33:24;25.10;55.80
1936;DHT22;969;49.892;10.896;2023-07-29T13:35:50;25.10;55.80
1936;DHT22;969;49.892;10.896;2023-07-29T13:38:15;25.20;55.80
1936;DHT22;969;49.892;10.896;2023-07-29T13:40:41;25.10;55.80
1936;DHT22;969;49.892;10.896;2023-07-29T13:43:07;25.10;55.80
1936;DHT22;969;49.892;10.896;2023-07-29T13:45:34;25.10;55.80
1936;DHT22;969;49.892;10.896;2023-07-29T13:48:00;25.10;55.80
1936;DHT22;969;49.892;10.896;2023-07-29T13:50:26;25.10;55.70
1936;DHT22;969;49.892;10.896;2023-07-29T13:52:52;25.10;55.60
1936;DHT22;969;49.892;10.896;2023-07-29T13:55:17;25.10;55.50
1936;DHT22;969;49.892;10.896;2023-07-29T13:57:43;25.10;55.50
1936;DHT22;969;49.892;10.896;2023-07-29T14:00:08;25.10;55.40
1936;DHT22;969;49.892;10.896;2023-07-29T14:02:34;25.10;55.40
1936;DHT22;969;49.892;10.896;2023-07-29T14:05:00;25.20;55.50
1936;DHT22;969;49.892;10.896;2023-07-29T14:07:25;25.20;55.50
1936;DHT22;969;49.892;10.896;2023-07-29T14:09:51;25.20;55.50
1936;DHT22;969;49.892;10.896;2023-07-29T14:12:16;25.20;55.50
1936;DHT22;969;49.892;10.896;2023-07-29T14:14:42;25.20;55.50
1936;DHT22;969;49.892;10.896;2023-07-29T14:17:08;25.20;55.50
1936;DHT22;969;49.892;10.896;2023-07-29T14:19:35;25.20;55.50
1936;DHT22;969;49.892;10.896;2023-07-29T14:22:01;25.20;55.60
1936;DHT22;969;49.892;10.896;2023-07-29T14:24:28;25.20;55.60
1936;DHT22;969;49.892;10.896;2023-07-29T14:26:53;25.30;55.70
1936;DHT22;969;49.892;10.896;2023-07-29T14:29:19;25.30;55.70
1936;DHT22;969;49.892;10.896;2023-07-29T14:31:45;25.30;55.70
1936;DHT22;969;49.892;10.896;2023-07-29T14:34:10;25.30;55.70
1936;DHT22;969;49.892;10.896;2023-07-29T14:36:36;25.30;55.70
1936;DHT22;969;49.892;10.896;2023-07-29T14:39:03;25.30;55.70
1936;DHT22;969;49.892;10.896;2023-07-29T14:41:29;25.30;55.70
1936;DHT22;969;49.892;10.896;2023-07-29T14:43:55;25.30;55.70
1936;DHT22;969;49.892;10.896;2023-07-29T14:46:20;25.30;55.70
1936;DHT22;969;49.892;10.896;2023-07-29T14:48:46;25.30;55.70
1936;DHT22;969;49.892;10.896;2023-07-29T14:51:12;25.30;56.00
1936;DHT22;969;49.892;10.896;2023-07-29T14:53:38;25.30;55.80
1936;DHT22;969;49.892;10.896;2023-07-29T14:56:04;25.30;55.80
1936;DHT22;969;49.892;10.896;2023-07-29T14:58:30;25.30;55.80
1936;DHT22;969;49.892;10.896;2023-07-29T15:00:56;25.30;55.80
1936;DHT22;969;49.892;10.896;2023-07-29T15:03:21;25.30;55.80
1936;DHT22;969;49.892;10.896;2023-07-29T15:05:49;25.30;55.70
1936;DHT22;969;49.892;10.896;2023-07-29T15:08:14;25.40;55.80
1936;DHT22;969;49.892;10.896;2023-07-29T15:10:40;25.40;55.80
1936;DHT22;969;49.892;10.896;2023-07-29T15:13:06;25.30;55.80
1936;DHT22;969;49.892;10.896;2023-07-29T15:15:32;25.40;56.30
1936;DHT22;969;49.892;10.896;2023-07-29T15:17:59;25.40;55.90
1936;DHT22;969;49.892;10.896;2023-07-29T15:20:26;25.40;55.90
1936;DHT22;969;49.892;10.896;2023-07-29T15:22:51;25.40;55.90
1936;DHT22;969;49.892;10.896;2023-07-29T15:25:17;25.40;56.40
1936;DHT22;969;49.892;10.896;2023-07-29T15:27:43;25.40;55.90
1936;DHT22;969;49.892;10.896;2023-07-29T15:30:08;25.40;55.80
1936;DHT22;969;49.892;10.896;2023-07-29T15:32:34;25.40;55.80
1936;DHT22;969;49.892;10.896;2023-07-29T15:35:00;25.40;55.80
1936;DHT22;969;49.892;10.896;2023-07-29T15:37:26;25.40;55.90
1936;DHT22;969;49.892;10.896;2023-07-29T15:39:52;25.40;55.80
1936;DHT22;969;49.892;10.896;2023-07-29T15:42:17;25.40;55.90
1936;DHT22;969;49.892;10.896;2023-07-29T15:44:44;25.40;55.80
1936;DHT22;969;49.892;10.896;2023-07-29T15:47:09;25.40;55.80
1936;DHT22;969;49.892;10.896;2023-07-29T15:49:38;25.40;55.80
1936;DHT22;969;49.892;10.896;2023-07-29T15:52:04;25.40;55.90
1936;DHT22;969;49.892;10.896;2023-07-29T15:54:31;25.40;55.80
1936;DHT22;969;49.892;10.896;2023-07-29T15:56:57;25.40;55.80
1936;DHT22;969;49.892;10.896;2023-07-29T15:59:22;25.40;55.80
1936;DHT22;969;49.892;10.896;2023-07-29T16:01:51;25.40;55.90
1936;DHT22;969;49.892;10.896;2023-07-29T16:04:17;25.40;55.80
1936;DHT22;969;49.892;10.896;2023-07-29T16:06:42;25.40;55.80
1936;DHT22;969;49.892;10.896;2023-07-29T16:09:08;25.50;55.90
1936;DHT22;969;49.892;10.896;2023-07-29T16:11:33;25.50;55.90
1936;DHT22;969;49.892;10.896;2023-07-29T16:13:59;25.50;55.90
1936;DHT22;969;49.892;10.896;2023-07-29T16:16:25;25.40;55.80
1936;DHT22;969;49.892;10.896;2023-07-29T16:18:51;25.50;55.90
1936;DHT22;969;49.892;10.896;2023-07-29T16:21:17;25.50;55.90
1936;DHT22;969;49.892;10.896;2023-07-29T16:23:42;25.50;55.90
1936;DHT22;969;49.892;10.896;2023-07-29T16:26:08;25.50;55.90